Time,TemperatureF,DewpointF,PressureIn,WindDirection,WindDirectionDegrees,WindSpeedMPH,WindSpeedGustMPH,Humidity,HourlyPrecipIn,Conditions,Clouds,dailyrainin,SoftwareType,DateUTC
2013-08-31 00:03:00,69.1,68.0,29.86,South,186,0.0,1.0,96,0.00,,,0.00,weatherlink.com 1.10,2013-08-31 04:03:00,
2013-08-31 00:17:00,68.9,68.0,29.87,SSW,205,0.0,2.0,96,0.00,,,0.00,weatherlink.com 1.10,2013-08-31 04:17:00,
2013-08-31 00:32:00,69.0,68.0,29.88,SW,221,0.0,2.0,95,0.00,,,0.00,weatherlink.com 1.10,2013-08-31 04:32:00,
2013-08-31 00:47:00,68.7,67.0,29.89,SW,221,0.0,2.0,95,0.00,,,0.00,weatherlink.com 1.10,2013-08-31 04:47:00,
2013-08-31 01:02:00,69.0,68.0,29.89,SW,221,0.0,1.0,95,0.00,,,0.00,weatherlink.com 1.10,2013-08-31 05:02:00,
2013-08-31 01:17:00,69.1,68.0,29.89,SW,221,0.0,1.0,95,0.00,,,0.00,weatherlink.com 1.10,2013-08-31 05:17:00,
2013-08-31 01:32:00,68.8,67.0,29.89,SW,221,0.0,0.0,94,0.00,,,0.00,weatherlink.com 1.10,2013-08-31 05:32:00,
2013-08-31 01:47:00,67.8,66.0,29.88,SW,221,0.0,0.0,95,0.00,,,0.00,weatherlink.com 1.10,2013-08-31 05:47:00,
2013-08-31 02:02:00,66.7,66.0,29.88,SW,221,0.0,0.0,96,0.00,,,0.00,weatherlink.com 1.10,2013-08-31 06:02:00,
2013-08-31 02:17:00,66.1,65.0,29.88,SW,221,0.0,0.0,96,0.00,,,0.00,weatherlink.com 1.10,2013-08-31 06:17:00,
2013-08-31 02:32:00,65.4,65.0,29.87,SW,221,0.0,0.0,97,0.00,,,0.00,weatherlink.com 1.10,2013-08-31 06:32:00,
2013-08-31 02:47:00,64.9,64.0,29.87,SW,221,0.0,0.0,97,0.00,,,0.00,weatherlink.com 1.10,2013-08-31 06:47:00,
2013-08-31 03:02:00,64.5,64.0,29.88,SW,221,0.0,0.0,98,0.00,,,0.00,weatherlink.com 1.10,2013-08-31 07:02:00,
2013-08-31 03:17:00,64.1,64.0,29.88,SW,221,0.0,0.0,98,0.00,,,0.00,weatherlink.com 1.10,2013-08-31 07:17:00,
2013-08-31 03:32:00,63.8,63.0,29.88,SW,221,0.0,0.0,98,0.00,,,0.00,weatherlink.com 1.10,2013-08-31 07:32:00,
2013-08-31 03:47:00,63.4,63.0,29.88,SW,221,0.0,0.0,98,0.00,,,0.00,weatherlink.com 1.10,2013-08-31 07:47:00,
2013-08-31 04:03:00,63.1,63.0,29.88,SW,221,0.0,0.0,98,0.00,,,0.00,weatherlink.com 1.10,2013-08-31 08:03:00,
2013-08-31 04:18:00,62.9,62.0,29.89,SW,221,0.0,0.0,98,0.00,,,0.00,weatherlink.com 1.10,2013-08-31 08:18:00,
2013-08-31 04:33:00,62.5,62.0,29.89,SW,221,0.0,0.0,98,0.00,,,0.00,weatherlink.com 1.10,2013-08-31 08:33:00,
2013-08-31 04:48:00,62.4,62.0,29.89,SW,221,0.0,0.0,98,0.00,,,0.00,weatherlink.com 1.10,2013-08-31 08:48:00,
2013-08-31 05:03:00,61.9,61.0,29.89,SW,221,0.0,0.0,98,0.00,,,0.00,weatherlink.com 1.10,2013-08-31 09:03:00,
2013-08-31 05:18:00,61.7,61.0,29.89,SW,221,0.0,0.0,98,0.00,,,0.00,weatherlink.com 1.10,2013-08-31 09:18:00,
2013-08-31 05:33:00,61.5,61.0,29.89,SW,221,0.0,0.0,98,0.00,,,0.00,weatherlink.com 1.10,2013-08-31 09:33:00,
2013-08-31 05:48:00,61.1,61.0,29.91,SW,221,0.0,0.0,98,0.00,,,0.00,weatherlink.com 1.10,2013-08-31 09:48:00,
2013-08-31 06:03:00,60.8,60.0,29.91,SW,221,0.0,0.0,98,0.00,,,0.00,weatherlink.com 1.10,2013-08-31 10:03:00,
2013-08-31 06:18:00,60.6,60.0,29.91,SW,221,0.0,0.0,98,0.00,,,0.00,weatherlink.com 1.10,2013-08-31 10:18:00,
2013-08-31 06:33:00,60.7,60.0,29.91,SW,221,0.0,0.0,98,0.00,,,0.00,weatherlink.com 1.10,2013-08-31 10:33:00,
2013-08-31 06:48:00,61.4,61.0,29.91,SW,221,0.0,0.0,99,0.00,,,0.00,weatherlink.com 1.10,2013-08-31 10:48:00,
2013-08-31 07:03:00,62.0,62.0,29.91,SW,221,0.0,0.0,99,0.00,,,0.00,weatherlink.com 1.10,2013-08-31 11:03:00,
2013-08-31 07:18:00,62.4,62.0,29.91,SW,221,0.0,0.0,99,0.00,,,0.00,weatherlink.com 1.10,2013-08-31 11:18:00,
2013-08-31 07:33:00,63.1,63.0,29.91,SW,221,0.0,0.0,99,0.00,,,0.00,weatherlink.com 1.10,2013-08-31 11:33:00,
2013-08-31 07:48:00,63.8,64.0,29.91,SW,221,0.0,0.0,99,0.00,,,0.00,weatherlink.com 1.10,2013-08-31 11:48:00,
2013-08-31 08:03:00,64.6,64.0,29.91,SW,221,0.0,0.0,99,0.00,,,0.00,weatherlink.com 1.10,2013-08-31 12:03:00,
2013-08-31 08:18:00,65.6,65.0,29.91,SW,221,0.0,0.0,99,0.00,,,0.00,weatherlink.com 1.10,2013-08-31 12:18:00,
2013-08-31 08:33:00,66.3,66.0,29.92,SW,221,0.0,0.0,99,0.00,,,0.00,weatherlink.com 1.10,2013-08-31 12:33:00,
2013-08-31 08:48:00,66.8,67.0,29.93,SW,221,0.0,1.0,99,0.00,,,0.00,weatherlink.com 1.10,2013-08-31 12:48:00,
2013-08-31 09:03:00,67.4,67.0,29.92,SW,221,0.0,0.0,99,0.00,,,0.00,weatherlink.com 1.10,2013-08-31 13:03:00,
2013-08-31 09:18:00,68.2,68.0,29.93,SW,221,0.0,1.0,99,0.00,,,0.00,weatherlink.com 1.10,2013-08-31 13:18:00,
2013-08-31 09:33:00,69.0,68.0,29.92,SE,129,0.0,3.0,97,0.00,,,0.00,weatherlink.com 1.10,2013-08-31 13:33:00,
2013-08-31 09:48:00,70.7,69.0,29.92,SE,145,1.0,4.0,93,0.00,,,0.00,weatherlink.com 1.10,2013-08-31 13:48:00,
2013-08-31 10:03:00,72.7,70.0,29.92,West,272,0.0,4.0,91,0.00,,,0.00,weatherlink.com 1.10,2013-08-31 14:03:00,
2013-08-31 10:18:00,72.8,69.0,29.93,ESE,102,0.0,3.0,88,0.00,,,0.00,weatherlink.com 1.10,2013-08-31 14:18:00,
2013-08-31 10:33:00,72.1,67.0,29.94,SE,139,0.0,2.0,85,0.00,,,0.00,weatherlink.com 1.10,2013-08-31 14:33:00,
2013-08-31 10:48:00,72.3,68.0,29.93,SE,136,0.0,2.0,86,0.00,,,0.00,weatherlink.com 1.10,2013-08-31 14:48:00,
2013-08-31 11:03:00,72.4,69.0,29.93,SE,136,0.0,1.0,89,0.00,,,0.00,weatherlink.com 1.10,2013-08-31 15:03:00,
2013-08-31 11:18:00,72.6,68.0,29.92,SSE,166,0.0,2.0,86,0.00,,,0.00,weatherlink.com 1.10,2013-08-31 15:18:00,
2013-08-31 11:33:00,72.7,68.0,29.92,SSW,194,0.0,1.0,86,0.00,,,0.00,weatherlink.com 1.10,2013-08-31 15:33:00,
2013-08-31 11:48:00,72.7,68.0,29.93,SSW,194,1.0,1.0,85,0.00,,,0.00,weatherlink.com 1.10,2013-08-31 15:48:00,
2013-08-31 12:03:00,72.7,68.0,29.93,SSW,194,0.0,1.0,86,0.00,,,0.00,weatherlink.com 1.10,2013-08-31 16:03:00,
2013-08-31 12:18:00,72.8,68.0,29.93,SSW,194,0.0,1.0,85,0.00,,,0.00,weatherlink.com 1.10,2013-08-31 16:18:00,
2013-08-31 12:33:00,73.1,67.0,29.94,SSW,194,0.0,1.0,82,0.00,,,0.00,weatherlink.com 1.10,2013-08-31 16:33:00,
2013-08-31 12:48:00,73.7,68.0,29.93,SSW,194,0.0,1.0,82,0.00,,,0.00,weatherlink.com 1.10,2013-08-31 16:48:00,
2013-08-31 13:03:00,74.0,68.0,29.93,SSW,194,0.0,1.0,80,0.00,,,0.00,weatherlink.com 1.10,2013-08-31 17:03:00,
2013-08-31 13:18:00,74.9,68.0,29.93,SSW,194,0.0,1.0,78,0.00,,,0.00,weatherlink.com 1.10,2013-08-31 17:18:00,
2013-08-31 13:33:00,74.9,67.0,29.92,NNW,347,0.0,2.0,77,0.00,,,0.00,weatherlink.com 1.10,2013-08-31 17:33:00,
2013-08-31 13:48:00,74.5,68.0,29.93,NNW,347,0.0,1.0,81,0.00,,,0.00,weatherlink.com 1.10,2013-08-31 17:48:00,
2013-08-31 14:03:00,74.5,67.0,29.93,NNW,346,0.0,1.0,78,0.00,,,0.00,weatherlink.com 1.10,2013-08-31 18:03:00,
2013-08-31 14:18:00,75.5,70.0,29.93,NNW,346,0.0,1.0,82,0.00,,,0.00,weatherlink.com 1.10,2013-08-31 18:18:00,
2013-08-31 14:33:00,75.8,69.0,29.92,NNW,346,0.0,1.0,79,0.00,,,0.00,weatherlink.com 1.10,2013-08-31 18:33:00,
2013-08-31 14:48:00,75.9,69.0,29.93,SSE,151,0.0,2.0,79,0.00,,,0.00,weatherlink.com 1.10,2013-08-31 18:48:00,
2013-08-31 15:03:00,76.9,66.0,29.92,SE,138,0.0,2.0,70,0.00,,,0.00,weatherlink.com 1.10,2013-08-31 19:03:00,
2013-08-31 15:18:00,78.3,68.0,29.93,ENE,67,0.0,2.0,71,0.00,,,0.00,weatherlink.com 1.10,2013-08-31 19:18:00,
2013-08-31 15:33:00,77.4,68.0,29.92,East,84,0.0,2.0,73,0.00,,,0.00,weatherlink.com 1.10,2013-08-31 19:33:00,
2013-08-31 15:48:00,76.0,68.0,29.92,East,84,1.0,1.0,77,0.00,,,0.00,weatherlink.com 1.10,2013-08-31 19:48:00,
2013-08-31 16:03:00,75.3,69.0,29.92,South,180,0.0,2.0,80,0.00,,,0.00,weatherlink.com 1.10,2013-08-31 20:03:00,
2013-08-31 16:19:00,76.1,69.0,29.91,South,180,0.0,2.0,79,0.00,,,0.00,weatherlink.com 1.10,2013-08-31 20:19:00,
2013-08-31 16:34:00,76.0,68.0,29.91,South,188,0.0,3.0,76,0.00,,,0.00,weatherlink.com 1.10,2013-08-31 20:34:00,
2013-08-31 16:49:00,76.2,70.0,29.91,WSW,246,0.0,2.0,81,0.00,,,0.00,weatherlink.com 1.10,2013-08-31 20:49:00,
2013-08-31 17:04:00,76.1,68.0,29.91,South,178,0.0,2.0,76,0.00,,,0.00,weatherlink.com 1.10,2013-08-31 21:04:00,
2013-08-31 17:19:00,75.6,68.0,29.91,SSW,201,0.0,2.0,77,0.00,,,0.00,weatherlink.com 1.10,2013-08-31 21:19:00,
2013-08-31 17:34:00,76.0,69.0,29.89,SSW,200,0.0,1.0,80,0.00,,,0.00,weatherlink.com 1.10,2013-08-31 21:34:00,
2013-08-31 17:49:00,75.6,68.0,29.89,SW,222,1.0,4.0,76,0.00,,,0.00,weatherlink.com 1.10,2013-08-31 21:49:00,
2013-08-31 18:04:00,74.8,67.0,29.89,South,182,2.0,3.0,77,0.00,,,0.00,weatherlink.com 1.10,2013-08-31 22:04:00,
2013-08-31 18:19:00,74.1,68.0,29.89,South,182,0.0,1.0,80,0.00,,,0.00,weatherlink.com 1.10,2013-08-31 22:19:00,
2013-08-31 18:34:00,74.6,69.0,29.88,South,182,0.0,1.0,82,0.00,,,0.00,weatherlink.com 1.10,2013-08-31 22:34:00,
2013-08-31 18:49:00,73.9,68.0,29.88,ENE,63,0.0,1.0,82,0.00,,,0.00,weatherlink.com 1.10,2013-08-31 22:49:00,
2013-08-31 19:04:00,72.5,67.0,29.88,ENE,63,0.0,0.0,84,0.00,,,0.00,weatherlink.com 1.10,2013-08-31 23:04:00,
2013-08-31 19:19:00,71.7,68.0,29.88,ENE,63,0.0,0.0,87,0.00,,,0.00,weatherlink.com 1.10,2013-08-31 23:19:00,
2013-08-31 19:34:00,70.9,67.0,29.89,ENE,63,0.0,0.0,86,0.00,,,0.00,weatherlink.com 1.10,2013-08-31 23:34:00,
2013-08-31 19:49:00,69.4,66.0,29.88,ENE,63,0.0,0.0,90,0.00,,,0.00,weatherlink.com 1.10,2013-08-31 23:49:00,
2013-08-31 20:04:00,68.0,65.0,29.88,ENE,63,0.0,0.0,91,0.00,,,0.00,weatherlink.com 1.10,2013-09-01 00:04:00,
2013-08-31 20:19:00,67.0,65.0,29.89,ENE,63,0.0,0.0,92,0.00,,,0.00,weatherlink.com 1.10,2013-09-01 00:19:00,
2013-08-31 20:34:00,66.0,64.0,29.89,ENE,63,0.0,0.0,94,0.00,,,0.00,weatherlink.com 1.10,2013-09-01 00:34:00,
2013-08-31 20:49:00,65.2,64.0,29.88,ENE,63,0.0,0.0,95,0.00,,,0.00,weatherlink.com 1.10,2013-09-01 00:49:00,
2013-08-31 21:04:00,64.6,64.0,29.89,ENE,63,0.0,0.0,96,0.00,,,0.00,weatherlink.com 1.10,2013-09-01 01:04:00,
2013-08-31 21:19:00,64.3,63.0,29.90,ENE,63,0.0,0.0,96,0.00,,,0.00,weatherlink.com 1.10,2013-09-01 01:19:00,
2013-08-31 21:34:00,63.8,63.0,29.90,ENE,63,0.0,0.0,97,0.00,,,0.00,weatherlink.com 1.10,2013-09-01 01:34:00,
2013-08-31 21:49:00,63.4,63.0,29.91,ENE,63,0.0,0.0,97,0.00,,,0.00,weatherlink.com 1.10,2013-09-01 01:49:00,
2013-08-31 22:04:00,63.1,62.0,29.90,ENE,63,0.0,0.0,97,0.00,,,0.00,weatherlink.com 1.10,2013-09-01 02:04:00,
2013-08-31 22:19:00,62.7,62.0,29.91,ENE,63,0.0,0.0,97,0.00,,,0.00,weatherlink.com 1.10,2013-09-01 02:19:00,
2013-08-31 22:34:00,63.3,63.0,29.91,ENE,63,0.0,0.0,98,0.00,,,0.00,weatherlink.com 1.10,2013-09-01 02:34:00,
2013-08-31 22:49:00,63.8,63.0,29.92,ENE,63,0.0,0.0,98,0.00,,,0.00,weatherlink.com 1.10,2013-09-01 02:49:00,
2013-08-31 23:04:00,63.4,63.0,29.93,ENE,63,0.0,0.0,98,0.00,,,0.00,weatherlink.com 1.10,2013-09-01 03:04:00,
2013-08-31 23:19:00,63.4,63.0,29.94,ENE,63,0.0,0.0,98,0.00,,,0.00,weatherlink.com 1.10,2013-09-01 03:19:00,
2013-08-31 23:34:00,64.0,64.0,29.94,ENE,63,0.0,0.0,98,0.00,,,0.00,weatherlink.com 1.10,2013-09-01 03:34:00,
2013-08-31 23:49:00,64.3,64.0,29.94,ENE,64,0.0,0.0,98,0.00,,,0.00,weatherlink.com 1.10,2013-09-01 03:49:00,